createdAt,value
2022-10-11T00:00:43.747Z,80.49
2022-10-11T00:05:37.113Z,80.66
2022-10-11T00:08:05.795Z,79.79
2022-10-11T00:10:33.873Z,80.09
2022-10-11T00:13:00.841Z,79.71
2022-10-11T00:15:28.698Z,79.86
2022-10-11T00:17:55.927Z,79.49
2022-10-11T00:20:22.773Z,79.75
2022-10-11T00:22:49.555Z,79.46
2022-10-11T00:25:16.933Z,79.46
2022-10-11T00:27:43.565Z,79.83
2022-10-11T00:30:11.328Z,79.72
2022-10-11T00:32:38.591Z,79.89
2022-10-11T00:35:07.121Z,80.00
2022-10-11T00:37:35.241Z,80.17
2022-10-11T00:40:02.984Z,80.32
2022-10-11T00:42:29.554Z,79.61
2022-10-11T00:45:28.151Z,80.94
2022-10-11T00:47:56.995Z,80.41
2022-10-11T00:50:24.670Z,79.86
2022-10-11T00:52:57.537Z,80.57
2022-10-11T00:55:26.866Z,80.84
2022-10-11T00:57:55.485Z,80.47
2022-10-11T01:00:22.151Z,80.69
2022-10-11T01:02:49.220Z,80.43
2022-10-11T01:05:29.307Z,80.28
2022-10-11T01:07:58.965Z,80.34
2022-10-11T01:10:26.285Z,80.59
2022-10-11T01:13:20.643Z,80.55
2022-10-11T01:15:58.498Z,81.74
2022-10-11T01:18:32.845Z,81.71
2022-10-11T01:21:08.515Z,80.75
2022-10-11T01:24:02.699Z,81.29
2022-10-11T01:27:01.313Z,81.64
2022-10-11T01:29:57.709Z,81.08
2022-10-11T01:32:24.227Z,81.24
2022-10-11T01:35:13.197Z,80.71
2022-10-11T01:37:45.572Z,80.49
2022-10-11T01:40:24.134Z,80.47
2022-10-11T01:42:52.226Z,80.67
2022-10-11T01:45:20.708Z,80.47
2022-10-11T01:47:47.601Z,80.76
2022-10-11T01:50:38.908Z,81.91
2022-10-11T01:53:34.664Z,82.23
2022-10-11T01:56:26.358Z,82.23
2022-10-11T01:59:18.404Z,81.79
2022-10-11T02:01:50.806Z,81.60
2022-10-11T02:04:25.000Z,80.59
2022-10-11T02:07:01.062Z,81.86
2022-10-11T02:09:40.647Z,81.54
2022-10-11T02:12:12.179Z,80.79
2022-10-11T02:14:43.775Z,81.19
2022-10-11T02:17:15.221Z,81.16
2022-10-11T02:19:48.233Z,82.17
2022-10-11T02:22:31.896Z,83.91
2022-10-11T02:25:02.703Z,84.09
2022-10-11T02:27:33.208Z,84.26
2022-10-11T02:30:03.400Z,82.40
2022-10-11T02:32:32.262Z,81.78
2022-10-11T02:35:01.858Z,81.88
2022-10-11T02:38:02.292Z,83.19
2022-10-11T02:40:33.278Z,82.46
2022-10-11T02:43:03.806Z,83.21
2022-10-11T02:45:44.714Z,83.08
2022-10-11T02:48:12.537Z,82.71
2022-10-11T02:50:40.340Z,83.01
2022-10-11T02:53:07.574Z,82.61
2022-10-11T02:55:34.165Z,82.61
2022-10-11T02:58:00.935Z,82.73
2022-10-11T03:00:29.362Z,82.31
2022-10-11T03:02:55.901Z,82.93
2022-10-11T03:05:22.553Z,82.26
2022-10-11T03:07:49.091Z,82.40
2022-10-11T03:10:15.806Z,81.93
2022-10-11T03:12:42.410Z,82.78
2022-10-11T03:15:09.421Z,82.07
2022-10-11T03:17:37.311Z,82.42
2022-10-11T03:20:06.026Z,82.25
2022-10-11T03:22:32.573Z,82.06
2022-10-11T03:25:03.669Z,82.56
2022-10-11T03:27:31.079Z,82.01
2022-10-11T03:29:57.815Z,82.14
2022-10-11T03:32:24.583Z,82.28
2022-10-11T03:34:51.145Z,82.92
2022-10-11T03:37:18.231Z,82.54
2022-10-11T03:39:45.660Z,82.78
2022-10-11T03:42:12.762Z,82.45
2022-10-11T03:44:39.463Z,83.29
2022-10-11T03:47:06.051Z,83.34
2022-10-11T03:49:32.651Z,83.61
2022-10-11T03:51:59.962Z,83.43
2022-10-11T03:54:26.608Z,82.87
2022-10-11T03:56:53.269Z,82.76
2022-10-11T03:59:19.904Z,83.22
2022-10-11T04:01:46.526Z,82.56
2022-10-11T04:04:13.211Z,82.55
2022-10-11T04:06:39.909Z,82.54
2022-10-11T04:09:06.514Z,82.08
2022-10-11T04:11:33.153Z,82.17
2022-10-11T04:13:59.813Z,81.96
2022-10-11T04:16:26.458Z,82.26
2022-10-11T04:18:53.181Z,81.83
2022-10-11T04:21:19.762Z,83.21
2022-10-11T04:23:46.329Z,82.59
2022-10-11T04:26:13.073Z,84.73
2022-10-11T04:28:39.675Z,83.21
2022-10-11T04:31:07.914Z,83.29
2022-10-11T04:33:34.526Z,82.60
2022-10-11T04:36:01.694Z,82.78
2022-10-11T04:38:28.715Z,82.76
2022-10-11T04:40:55.408Z,82.88
2022-10-11T04:43:22.026Z,83.08
2022-10-11T04:45:52.243Z,82.46
2022-10-11T04:48:21.337Z,82.21
2022-10-11T04:50:48.080Z,84.13
2022-10-11T04:53:16.634Z,83.23
2022-10-11T04:55:43.239Z,84.96
2022-10-11T04:58:10.031Z,83.29
2022-10-11T05:00:36.617Z,82.71
2022-10-11T05:03:03.247Z,82.86
2022-10-11T05:05:29.835Z,83.28
2022-10-11T05:07:56.441Z,82.47
2022-10-11T05:10:22.980Z,82.41
2022-10-11T05:12:49.517Z,82.44
2022-10-11T05:15:16.172Z,82.08
2022-10-11T05:17:42.786Z,82.04
2022-10-11T05:20:10.019Z,82.78
2022-10-11T05:22:36.674Z,82.44
2022-10-11T05:25:03.466Z,83.62
2022-10-11T05:27:30.138Z,84.45
2022-10-11T05:29:56.751Z,83.17
2022-10-11T05:32:27.600Z,83.18
2022-10-11T05:34:54.534Z,84.58
2022-10-11T05:37:21.296Z,84.47
2022-10-11T05:39:47.855Z,83.75
2022-10-11T05:42:14.458Z,84.57
2022-10-11T05:44:41.043Z,83.65
2022-10-11T05:47:07.791Z,84.52
2022-10-11T05:49:34.413Z,83.68
2022-10-11T05:52:00.995Z,84.49
2022-10-11T05:54:31.472Z,85.70
2022-10-11T05:56:58.026Z,84.14
2022-10-11T05:59:24.605Z,84.74
2022-10-11T06:01:51.218Z,84.14
2022-10-11T06:04:19.003Z,84.74
2022-10-11T06:06:45.757Z,85.18
2022-10-11T06:09:12.802Z,84.07
2022-10-11T06:11:41.374Z,84.61
2022-10-11T06:14:09.488Z,84.52
2022-10-11T06:16:36.023Z,85.06
2022-10-11T06:19:02.878Z,84.47
2022-10-11T06:21:29.770Z,84.62
2022-10-11T06:24:01.154Z,84.46
2022-10-11T06:26:29.348Z,84.38
2022-10-11T06:28:56.460Z,84.63
2022-10-11T06:31:23.397Z,86.01
2022-10-11T06:33:49.955Z,85.73
2022-10-11T06:36:17.121Z,85.21
2022-10-11T06:38:45.396Z,85.49
2022-10-11T06:41:22.358Z,85.62
2022-10-11T06:43:51.710Z,85.06
2022-10-11T06:46:20.010Z,84.23
2022-10-11T06:48:48.250Z,84.18
2022-10-11T06:51:16.942Z,83.63
2022-10-11T06:53:43.750Z,83.83
2022-10-11T06:56:12.317Z,83.58
2022-10-11T06:58:39.880Z,84.05
2022-10-11T07:01:13.006Z,85.05
2022-10-11T07:03:42.649Z,82.75
2022-10-11T07:06:11.579Z,83.51
2022-10-11T07:08:38.672Z,83.65
2022-10-11T07:11:10.547Z,83.84
2022-10-11T07:13:38.275Z,82.58
2022-10-11T07:16:08.130Z,82.71
2022-10-11T07:18:35.278Z,82.76
2022-10-11T07:21:07.852Z,82.76
2022-10-11T07:23:35.239Z,82.30
2022-10-11T07:26:01.971Z,82.11
2022-10-11T07:28:30.450Z,81.98
2022-10-11T07:30:58.033Z,81.81
2022-10-11T07:33:25.073Z,81.51
2022-10-11T07:35:56.503Z,81.53
2022-10-11T07:38:23.062Z,80.64
2022-10-11T07:40:49.807Z,81.99
2022-10-11T07:43:16.548Z,80.84
2022-10-11T07:45:45.436Z,80.91
2022-10-11T07:48:12.092Z,80.16
2022-10-11T07:50:38.699Z,80.13
2022-10-11T07:53:05.264Z,79.44
2022-10-11T07:55:40.420Z,78.86
2022-10-11T07:58:12.012Z,78.71
2022-10-11T08:00:42.162Z,78.45
2022-10-11T08:03:10.232Z,78.39
2022-10-11T08:05:39.023Z,78.15
2022-10-11T08:08:05.970Z,77.43
2022-10-11T08:10:38.106Z,77.36
2022-10-11T08:13:05.324Z,77.02
2022-10-11T08:15:31.910Z,77.12
2022-10-11T08:17:58.473Z,77.60
2022-10-11T08:20:25.188Z,76.89
2022-10-11T08:22:51.758Z,76.28
2022-10-11T08:25:18.349Z,76.93
2022-10-11T08:27:44.932Z,76.21
2022-10-11T08:30:12.100Z,76.34
2022-10-11T08:32:38.877Z,76.11
2022-10-11T08:35:06.220Z,75.63
2022-10-11T08:37:32.860Z,75.58
2022-10-11T08:39:59.437Z,73.77
2022-10-11T08:42:35.943Z,75.10
2022-10-11T08:45:40.639Z,73.67
2022-10-11T08:48:21.165Z,73.79
2022-10-11T08:50:51.047Z,73.59
2022-10-11T08:53:47.731Z,72.56
2022-10-11T08:56:16.427Z,73.60
2022-10-11T08:59:08.909Z,71.65
2022-10-11T09:01:36.037Z,72.30
2022-10-11T09:04:03.625Z,72.54
2022-10-11T09:06:56.471Z,68.09
2022-10-11T09:09:44.918Z,68.01
2022-10-11T09:12:40.952Z,68.26
2022-10-11T09:15:12.779Z,66.78
2022-10-11T09:17:51.219Z,66.57
2022-10-11T09:20:48.813Z,65.53
2022-10-11T09:23:34.081Z,66.33
2022-10-11T09:26:19.420Z,64.97
2022-10-11T09:29:03.700Z,64.01
2022-10-11T09:31:31.430Z,67.06
2022-10-11T09:33:59.973Z,67.28
2022-10-11T09:36:36.170Z,66.79
2022-10-11T09:39:16.805Z,65.91
2022-10-11T09:41:51.986Z,63.80
2022-10-11T09:44:27.982Z,64.37
2022-10-11T09:46:55.876Z,65.22
2022-10-11T09:49:28.294Z,64.24
2022-10-11T09:51:58.603Z,64.09
2022-10-11T09:54:46.492Z,60.67
2022-10-11T09:57:23.867Z,62.56
2022-10-11T10:00:00.169Z,62.93
2022-10-11T10:02:29.010Z,64.47
2022-10-11T10:04:58.645Z,63.52
2022-10-11T10:07:25.920Z,61.39
2022-10-11T10:09:53.175Z,63.78
2022-10-11T10:12:23.500Z,60.11
2022-10-11T10:15:13.799Z,59.99
2022-10-11T10:17:49.324Z,60.20
2022-10-11T10:20:34.493Z,61.25
2022-10-11T10:23:09.730Z,62.57
2022-10-11T10:25:43.073Z,62.60
2022-10-11T10:28:25.520Z,60.85
2022-10-11T10:30:54.368Z,62.20
2022-10-11T10:33:25.939Z,60.75
2022-10-11T10:35:58.072Z,60.19
2022-10-11T10:38:40.672Z,60.38
2022-10-11T10:41:13.754Z,58.86
2022-10-11T10:43:43.024Z,59.10
2022-10-11T10:46:47.331Z,58.84
2022-10-11T10:49:53.246Z,59.54
2022-10-11T10:52:27.131Z,57.88
2022-10-11T10:55:05.515Z,56.89
2022-10-11T10:57:34.981Z,59.04
2022-10-11T11:00:10.342Z,59.22
2022-10-11T11:02:55.303Z,57.69
2022-10-11T11:05:37.057Z,57.81
2022-10-11T11:08:12.175Z,59.84
2022-10-11T11:11:10.634Z,57.37
2022-10-11T11:13:49.923Z,58.88
2022-10-11T11:16:16.464Z,59.93
2022-10-11T11:18:52.051Z,59.74
2022-10-11T11:21:41.703Z,59.23
2022-10-11T11:24:34.876Z,57.75
2022-10-11T11:27:29.507Z,56.40
2022-10-11T11:30:01.885Z,58.24
2022-10-11T11:32:45.578Z,56.62
2022-10-11T11:36:05.563Z,56.17
2022-10-11T11:38:53.644Z,56.09
2022-10-11T11:41:28.630Z,57.94
2022-10-11T11:44:30.009Z,57.47
2022-10-11T11:47:02.583Z,58.71
2022-10-11T11:49:37.367Z,57.17
2022-10-11T11:52:06.693Z,58.62
2022-10-11T11:55:05.933Z,57.18
2022-10-11T11:57:53.828Z,55.57
2022-10-11T12:00:23.518Z,58.89
2022-10-11T12:03:11.692Z,56.38
2022-10-11T12:05:38.425Z,58.60
2022-10-11T12:08:08.437Z,58.28
2022-10-11T12:10:50.100Z,58.66
2022-10-11T12:13:35.274Z,57.13
2022-10-11T12:16:13.718Z,57.11
2022-10-11T12:19:02.374Z,56.74
2022-10-11T12:21:35.511Z,57.70
2022-10-11T12:24:11.337Z,57.23
2022-10-11T12:26:46.846Z,57.16
2022-10-11T12:29:51.091Z,56.94
2022-10-11T12:32:26.911Z,56.18
2022-10-11T12:35:31.466Z,56.73
2022-10-11T12:38:14.797Z,56.02
2022-10-11T12:40:42.962Z,58.38
2022-10-11T12:43:22.510Z,58.07
2022-10-11T12:45:49.468Z,58.39
2022-10-11T12:48:19.007Z,58.50
2022-10-11T12:50:48.463Z,57.91
2022-10-11T12:53:21.134Z,57.22
2022-10-11T12:56:02.556Z,57.54
2022-10-11T12:58:38.385Z,58.22
2022-10-11T13:01:10.272Z,58.64
2022-10-11T13:03:40.778Z,57.89
2022-10-11T13:06:33.914Z,57.57
2022-10-11T13:09:09.465Z,56.88
2022-10-11T13:11:40.579Z,57.00
2022-10-11T13:14:16.847Z,57.31
2022-10-11T13:17:11.208Z,57.54
2022-10-11T13:22:20.730Z,58.51
2022-10-11T13:24:47.379Z,58.65
2022-10-11T13:27:20.789Z,57.77
2022-10-11T13:29:49.009Z,58.34
2022-10-11T13:32:26.104Z,57.67
2022-10-11T13:37:30.055Z,57.54
2022-10-11T13:39:57.438Z,57.74
2022-10-11T13:42:29.746Z,56.89
2022-10-11T13:44:58.132Z,57.21
2022-10-11T13:47:30.676Z,56.42
2022-10-11T13:50:10.835Z,56.97
2022-10-11T13:52:59.783Z,56.53
2022-10-11T13:55:28.533Z,57.66
2022-10-11T13:57:57.694Z,57.56
2022-10-11T14:00:26.994Z,57.90
2022-10-11T14:03:15.443Z,56.92
2022-10-11T14:05:54.430Z,57.45
2022-10-11T14:08:54.038Z,57.51
2022-10-11T14:11:39.186Z,58.14
2022-10-11T14:14:28.846Z,58.46
2022-10-11T14:17:10.587Z,58.53
2022-10-11T14:19:39.712Z,59.14
2022-10-11T14:22:11.912Z,59.29
2022-10-11T14:24:38.637Z,59.11
2022-10-11T14:27:06.178Z,59.30
2022-10-11T14:29:35.660Z,58.75
2022-10-11T14:32:14.078Z,58.97
2022-10-11T14:34:42.613Z,59.55
2022-10-11T14:37:12.429Z,59.41
2022-10-11T14:39:39.052Z,59.38
2022-10-11T14:42:06.008Z,59.97
2022-10-11T14:44:32.577Z,59.65
2022-10-11T14:46:59.516Z,59.82
2022-10-11T14:49:29.008Z,59.79
2022-10-11T14:51:57.717Z,59.44
2022-10-11T14:54:26.046Z,59.78
2022-10-11T14:56:54.741Z,59.65
2022-10-11T14:59:23.978Z,59.84
2022-10-11T15:01:53.483Z,60.21
2022-10-11T15:04:25.362Z,60.13
2022-10-11T15:06:53.922Z,60.13
2022-10-11T15:09:21.290Z,60.39
2022-10-11T15:11:49.383Z,60.30
2022-10-11T15:14:16.100Z,60.62
2022-10-11T15:16:43.093Z,60.80
2022-10-11T15:19:21.700Z,60.61
2022-10-11T15:21:48.718Z,61.08
2022-10-11T15:24:15.698Z,61.22
2022-10-11T15:26:42.459Z,61.45
2022-10-11T15:29:14.099Z,61.39
2022-10-11T15:31:40.755Z,61.35
2022-10-11T15:34:07.353Z,61.40
2022-10-11T15:36:34.085Z,62.30
2022-10-11T15:39:03.056Z,62.16
2022-10-11T15:41:29.662Z,61.66
2022-10-11T15:43:56.270Z,62.46
2022-10-11T15:46:23.353Z,62.69
2022-10-11T15:48:51.408Z,62.84
2022-10-11T15:51:18.585Z,62.29
2022-10-11T15:53:45.298Z,62.69
2022-10-11T15:56:17.182Z,63.46
2022-10-11T15:58:44.441Z,63.32
2022-10-11T16:01:19.348Z,63.46
2022-10-11T16:03:47.939Z,63.58
2022-10-11T16:06:15.159Z,63.30
2022-10-11T16:08:41.723Z,63.29
2022-10-11T16:11:09.831Z,64.09
2022-10-11T16:13:36.693Z,63.99
2022-10-11T16:16:06.249Z,63.59
2022-10-11T16:18:35.686Z,64.63
2022-10-11T16:21:10.193Z,64.96
2022-10-11T16:23:37.530Z,65.18
2022-10-11T16:26:07.999Z,65.86
2022-10-11T16:28:35.611Z,65.90
2022-10-11T16:31:18.071Z,65.77
2022-10-11T16:33:47.835Z,65.85
2022-10-11T16:36:32.484Z,66.16
2022-10-11T16:39:00.355Z,66.23
2022-10-11T16:41:26.938Z,66.83
2022-10-11T16:43:54.738Z,66.23
2022-10-11T16:46:22.048Z,66.54
2022-10-11T16:48:48.858Z,66.83
2022-10-11T16:51:15.527Z,67.27
2022-10-11T16:53:42.180Z,68.19
2022-10-11T16:56:11.312Z,67.84
2022-10-11T16:58:37.956Z,68.62
2022-10-11T17:01:09.629Z,69.00
2022-10-11T17:03:36.844Z,68.47
2022-10-11T17:06:04.787Z,68.96
2022-10-11T17:08:31.708Z,68.57
2022-10-11T17:10:58.292Z,68.59
2022-10-11T17:13:25.100Z,69.74
2022-10-11T17:15:51.676Z,69.11
2022-10-11T17:18:18.587Z,69.19
2022-10-11T17:20:45.311Z,69.29
2022-10-11T17:23:12.120Z,69.87
2022-10-11T17:25:46.467Z,70.29
2022-10-11T17:28:13.214Z,69.60
2022-10-11T17:30:42.797Z,69.24
2022-10-11T17:33:10.316Z,69.64
2022-10-11T17:35:36.899Z,70.13
2022-10-11T17:38:06.359Z,69.81
2022-10-11T17:40:33.259Z,70.39
2022-10-11T17:42:59.889Z,70.93
2022-10-11T17:45:26.509Z,71.12
2022-10-11T17:47:53.864Z,71.89
2022-10-11T17:50:20.506Z,71.24
2022-10-11T17:52:47.224Z,70.75
2022-10-11T17:55:13.763Z,71.16
2022-10-11T17:57:40.510Z,70.95
2022-10-11T18:00:07.714Z,71.20
2022-10-11T18:02:34.300Z,71.63
2022-10-11T18:05:00.928Z,71.13
2022-10-11T18:07:27.500Z,72.13
2022-10-11T18:09:54.214Z,72.29
2022-10-11T18:12:21.097Z,72.78
2022-10-11T18:14:47.814Z,72.89
2022-10-11T18:17:14.478Z,72.54
2022-10-11T18:19:41.024Z,73.28
2022-10-11T18:22:07.639Z,72.84
2022-10-11T18:24:34.624Z,73.54
2022-10-11T18:27:01.461Z,73.68
2022-10-11T18:29:28.637Z,74.04
2022-10-11T18:31:55.207Z,73.95
2022-10-11T18:34:21.787Z,73.89
2022-10-11T18:36:48.367Z,74.46
2022-10-11T18:39:15.385Z,74.11
2022-10-11T18:41:45.545Z,74.37
2022-10-11T18:44:14.377Z,74.71
2022-10-11T18:46:41.315Z,74.40
2022-10-11T18:49:08.897Z,74.66
2022-10-11T18:51:40.938Z,74.71
2022-10-11T18:54:10.052Z,75.03
2022-10-11T18:56:37.119Z,75.83
2022-10-11T18:59:05.587Z,75.35
2022-10-11T19:01:40.973Z,75.46
2022-10-11T19:04:10.162Z,75.56
2022-10-11T19:06:39.567Z,75.85
2022-10-11T19:09:10.749Z,75.08
2022-10-11T19:11:38.256Z,75.27
2022-10-11T19:14:07.084Z,75.78
2022-10-11T19:16:40.161Z,76.20
2022-10-11T19:19:07.656Z,75.76
2022-10-11T19:21:34.233Z,75.45
2022-10-11T19:24:01.136Z,75.73
2022-10-11T19:26:33.704Z,76.06
2022-10-11T19:29:01.266Z,76.35
2022-10-11T19:31:28.583Z,76.37
2022-10-11T19:33:56.843Z,75.73
2022-10-11T19:36:24.055Z,76.39
2022-10-11T19:38:51.066Z,76.87
2022-10-11T19:41:19.701Z,76.59
2022-10-11T19:43:46.788Z,76.25
2022-10-11T19:46:20.248Z,76.83
2022-10-11T19:48:54.569Z,76.79
2022-10-11T19:51:24.136Z,78.04
2022-10-11T19:54:02.605Z,78.23
2022-10-11T19:56:31.561Z,77.39
2022-10-11T19:58:58.238Z,77.03
2022-10-11T20:01:27.557Z,77.04
2022-10-11T20:03:56.675Z,77.26
2022-10-11T20:06:25.711Z,76.92
2022-10-11T20:09:04.901Z,77.16
2022-10-11T20:11:39.137Z,77.57
2022-10-11T20:14:06.005Z,77.71
2022-10-11T20:16:32.575Z,77.50
2022-10-11T20:18:59.369Z,78.29
2022-10-11T20:21:28.432Z,78.13
2022-10-11T20:23:59.564Z,78.38
2022-10-11T20:26:27.888Z,78.00
2022-10-11T20:28:56.180Z,78.04
2022-10-11T20:31:25.917Z,78.19
2022-10-11T20:33:55.978Z,78.56
2022-10-11T20:36:23.529Z,77.86
2022-10-11T20:38:50.634Z,78.44
2022-10-11T20:41:29.166Z,79.44
2022-10-11T20:43:57.917Z,78.69
2022-10-11T20:46:26.913Z,78.56
2022-10-11T20:49:01.764Z,80.47
2022-10-11T20:51:30.022Z,78.64
2022-10-11T20:53:56.755Z,78.81
2022-10-11T20:56:23.836Z,78.86
2022-10-11T20:58:52.635Z,78.41
2022-10-11T21:01:26.115Z,79.21
2022-10-11T21:03:53.307Z,79.07
2022-10-11T21:06:20.027Z,79.46
2022-10-11T21:08:46.563Z,79.92
2022-10-11T21:11:13.174Z,79.52
2022-10-11T21:13:40.023Z,79.84
2022-10-11T21:16:10.863Z,81.09
2022-10-11T21:18:38.042Z,80.34
2022-10-11T21:21:10.542Z,81.00
2022-10-11T21:23:37.255Z,79.46
2022-10-11T21:26:06.400Z,79.70
2022-10-11T21:28:33.305Z,80.26
2022-10-11T21:31:12.442Z,81.17
2022-10-11T21:33:40.725Z,80.66
2022-10-11T21:36:10.467Z,80.38
2022-10-11T21:38:37.570Z,79.85
2022-10-11T21:41:05.600Z,80.19
2022-10-11T21:43:33.649Z,79.73
2022-10-11T21:46:00.231Z,79.64
2022-10-11T21:48:29.376Z,81.26
2022-10-11T21:50:55.950Z,79.80
2022-10-11T21:53:22.521Z,79.82
2022-10-11T21:55:56.930Z,80.29
2022-10-11T21:58:23.494Z,79.65
2022-10-11T22:00:50.082Z,79.57
2022-10-11T22:03:16.674Z,79.22
2022-10-11T22:05:44.765Z,79.20
2022-10-11T22:08:12.673Z,79.31
2022-10-11T22:10:42.534Z,79.71
2022-10-11T22:13:09.168Z,79.32
2022-10-11T22:15:36.842Z,79.35
2022-10-11T22:18:03.703Z,79.63
2022-10-11T22:20:32.578Z,79.43
2022-10-11T22:22:59.312Z,79.66
2022-10-11T22:25:25.939Z,79.82
2022-10-11T22:27:52.571Z,80.36
2022-10-11T22:30:19.175Z,80.50
2022-10-11T22:32:45.910Z,80.04
2022-10-11T22:35:12.475Z,79.97
2022-10-11T22:37:39.013Z,79.82
2022-10-11T22:40:06.149Z,80.50
2022-10-11T22:42:32.712Z,80.13
2022-10-11T22:44:59.898Z,80.17
2022-10-11T22:47:26.732Z,80.47
2022-10-11T22:49:53.358Z,80.17
2022-10-11T22:52:19.929Z,80.21
2022-10-11T22:54:46.675Z,79.87
2022-10-11T22:57:13.265Z,79.98
2022-10-11T22:59:39.822Z,80.71
2022-10-11T23:02:06.434Z,80.16
2022-10-11T23:04:32.996Z,80.61
2022-10-11T23:07:04.647Z,80.05
2022-10-11T23:09:31.680Z,80.13
2022-10-11T23:11:59.387Z,79.79
2022-10-11T23:14:26.009Z,80.25
2022-10-11T23:16:53.276Z,80.16
2022-10-11T23:19:19.866Z,79.88
2022-10-11T23:21:46.738Z,80.10
2022-10-11T23:24:13.421Z,80.10
2022-10-11T23:26:39.974Z,80.40
2022-10-11T23:29:06.540Z,80.39
2022-10-11T23:31:33.081Z,79.85
2022-10-11T23:33:59.688Z,79.92
2022-10-11T23:36:26.449Z,79.67
2022-10-11T23:38:57.766Z,79.73
2022-10-11T23:41:25.843Z,81.39
2022-10-11T23:43:52.886Z,80.33
2022-10-11T23:46:19.500Z,80.16
2022-10-11T23:48:46.157Z,80.19
2022-10-11T23:51:13.202Z,79.97
2022-10-11T23:53:39.828Z,80.29
2022-10-11T23:56:06.798Z,80.00
